createdAt,value
2019-05-10T00:01:30.751Z,13.90
2019-05-10T00:04:18.735Z,13.90
2019-05-10T00:07:06.959Z,13.80
2019-05-10T00:09:36.401Z,13.80
2019-05-10T00:12:13.883Z,13.70
2019-05-10T00:14:45.650Z,13.70
2019-05-10T00:17:17.547Z,13.60
2019-05-10T00:19:48.446Z,13.60
2019-05-10T00:22:18.562Z,13.60
2019-05-10T00:25:02.274Z,13.60
2019-05-10T00:27:20.612Z,13.60
2019-05-10T00:29:50.659Z,13.60
2019-05-10T00:32:20.792Z,13.50
2019-05-10T00:34:50.892Z,13.40
2019-05-10T00:37:20.940Z,13.40
2019-05-10T00:39:50.888Z,13.40
2019-05-10T00:42:20.948Z,13.40
2019-05-10T00:44:50.979Z,13.40
2019-05-10T00:47:21.077Z,13.40
2019-05-10T00:49:51.090Z,13.40
2019-05-10T00:52:21.286Z,13.30
2019-05-10T00:54:51.268Z,13.30
2019-05-10T00:57:21.287Z,13.30
2019-05-10T00:59:51.351Z,13.30
2019-05-10T01:02:21.375Z,13.30
2019-05-10T01:04:53.715Z,13.30
2019-05-10T01:07:23.939Z,13.30
2019-05-10T01:09:54.042Z,13.40
2019-05-10T01:12:24.672Z,13.30
2019-05-10T01:14:54.760Z,13.40
2019-05-10T01:17:24.964Z,13.30
2019-05-10T01:19:56.067Z,13.30
2019-05-10T01:22:26.120Z,13.30
2019-05-10T01:24:56.074Z,13.30
2019-05-10T01:27:26.195Z,13.30
2019-05-10T01:29:57.977Z,13.30
2019-05-10T01:32:28.707Z,13.20
2019-05-10T01:35:00.415Z,13.20
2019-05-10T01:37:30.408Z,13.20
2019-05-10T01:40:00.499Z,13.10
2019-05-10T01:42:30.496Z,13.20
2019-05-10T01:45:00.855Z,13.20
2019-05-10T01:47:30.953Z,13.20
2019-05-10T01:50:01.028Z,13.20
2019-05-10T01:52:31.046Z,13.30
2019-05-10T01:55:01.099Z,13.20
2019-05-10T01:57:31.140Z,13.20
2019-05-10T02:00:01.207Z,13.20
2019-05-10T02:02:31.295Z,13.10
2019-05-10T02:05:01.415Z,13.00
2019-05-10T02:07:31.637Z,12.90
2019-05-10T02:10:01.767Z,13.00
2019-05-10T02:12:34.503Z,13.10
2019-05-10T02:15:08.749Z,13.10
2019-05-10T02:17:38.808Z,13.10
2019-05-10T02:20:09.490Z,13.20
2019-05-10T02:22:39.599Z,13.20
2019-05-10T02:25:09.687Z,13.20
2019-05-10T02:27:39.755Z,13.20
2019-05-10T02:30:10.744Z,13.20
2019-05-10T02:32:40.803Z,13.20
2019-05-10T02:35:11.001Z,13.20
2019-05-10T02:37:41.074Z,13.20
2019-05-10T02:40:12.873Z,13.20
2019-05-10T02:42:42.895Z,13.10
2019-05-10T02:45:13.259Z,13.10
2019-05-10T02:47:43.539Z,13.10
2019-05-10T02:50:14.366Z,13.10
2019-05-10T02:52:44.484Z,13.10
2019-05-10T02:55:22.330Z,13.10
2019-05-10T02:57:53.980Z,13.10
2019-05-10T03:00:25.375Z,13.10
2019-05-10T03:02:56.097Z,13.10
2019-05-10T03:05:29.120Z,13.00
2019-05-10T03:08:00.797Z,13.00
2019-05-10T03:10:32.453Z,12.90
2019-05-10T03:13:04.802Z,12.90
2019-05-10T03:15:36.872Z,12.90
2019-05-10T03:18:07.790Z,12.80
2019-05-10T03:20:38.766Z,12.80
2019-05-10T03:23:10.565Z,12.80
2019-05-10T03:25:40.680Z,12.90
2019-05-10T03:28:10.723Z,12.90
2019-05-10T03:30:41.022Z,12.90
2019-05-10T03:33:11.181Z,12.90
2019-05-10T03:35:41.274Z,12.90
2019-05-10T03:38:11.314Z,12.90
2019-05-10T03:40:41.407Z,12.90
2019-05-10T03:43:11.663Z,12.90
2019-05-10T03:45:41.875Z,12.90
2019-05-10T03:48:11.868Z,12.90
2019-05-10T03:50:41.891Z,12.90
2019-05-10T03:53:31.290Z,12.90
2019-05-10T03:56:01.270Z,12.80
2019-05-10T03:58:31.293Z,12.70
2019-05-10T04:01:01.454Z,12.60
2019-05-10T04:03:31.729Z,12.60
2019-05-10T04:06:01.846Z,12.60
2019-05-10T04:08:31.867Z,12.50
2019-05-10T04:11:02.063Z,12.50
2019-05-10T04:13:32.123Z,12.50
2019-05-10T04:16:02.289Z,12.50
2019-05-10T04:18:32.547Z,12.60
2019-05-10T04:21:02.568Z,12.70
2019-05-10T04:23:32.721Z,12.70
2019-05-10T04:26:02.662Z,12.80
2019-05-10T04:28:35.514Z,12.80
2019-05-10T04:33:47.547Z,12.70
2019-05-10T04:36:17.656Z,12.80
2019-05-10T04:38:47.663Z,12.80
2019-05-10T04:41:17.704Z,12.80
2019-05-10T04:43:47.667Z,12.80
2019-05-10T04:46:17.729Z,12.90
2019-05-10T04:48:53.800Z,12.90
2019-05-10T04:51:23.994Z,13.00
2019-05-10T04:53:54.257Z,13.00
2019-05-10T04:56:24.459Z,13.10
2019-05-10T04:58:54.557Z,13.20
2019-05-10T05:01:24.539Z,13.20
2019-05-10T05:03:54.551Z,13.20
2019-05-10T05:06:24.608Z,13.30
2019-05-10T05:08:54.634Z,13.30
2019-05-10T05:11:44.136Z,13.40
2019-05-10T05:14:14.251Z,13.40
2019-05-10T05:16:44.270Z,13.40
2019-05-10T05:19:14.285Z,13.40
2019-05-10T05:21:44.291Z,13.50
2019-05-10T05:24:16.936Z,13.50
2019-05-10T05:26:46.018Z,13.50
2019-05-10T05:29:16.075Z,13.60
2019-05-10T05:31:46.168Z,13.60
2019-05-10T05:34:16.355Z,13.60
2019-05-10T05:36:46.359Z,13.70
2019-05-10T05:39:16.378Z,13.70
2019-05-10T05:41:51.785Z,13.70
2019-05-10T05:44:20.414Z,13.70
2019-05-10T05:47:10.427Z,13.70
2019-05-10T05:49:40.479Z,13.80
2019-05-10T05:52:10.531Z,13.80
2019-05-10T05:54:40.562Z,13.80
2019-05-10T05:57:10.694Z,13.80
2019-05-10T05:59:40.715Z,13.90
2019-05-10T06:02:10.930Z,13.90
2019-05-10T06:04:45.920Z,14.00
2019-05-10T06:07:12.555Z,14.00
2019-05-10T06:09:42.737Z,14.00
2019-05-10T06:12:14.242Z,14.10
2019-05-10T06:14:49.607Z,14.10
2019-05-10T06:17:15.932Z,14.00
2019-05-10T06:19:51.176Z,14.10
2019-05-10T06:22:21.124Z,14.10
2019-05-10T06:24:52.524Z,14.10
2019-05-10T06:27:24.143Z,14.20
2019-05-10T06:29:54.091Z,14.20
2019-05-10T06:32:24.366Z,14.30
2019-05-10T06:34:54.286Z,14.30
2019-05-10T06:37:24.423Z,14.40
2019-05-10T06:39:54.747Z,14.40
2019-05-10T06:42:28.756Z,14.40
2019-05-10T06:44:56.559Z,14.50
2019-05-10T06:47:26.686Z,14.60
2019-05-10T06:49:57.016Z,14.60
2019-05-10T06:52:28.037Z,14.70
2019-05-10T06:54:58.938Z,14.80
2019-05-10T06:57:29.197Z,14.80
2019-05-10T07:00:06.065Z,14.90
2019-05-10T07:02:32.546Z,15.00
2019-05-10T07:05:03.034Z,15.10
2019-05-10T07:07:43.999Z,15.20
2019-05-10T07:10:15.816Z,15.30
2019-05-10T07:12:39.844Z,15.40
2019-05-10T07:15:10.579Z,15.40
2019-05-10T07:17:45.362Z,15.50
2019-05-10T07:20:12.413Z,15.50
2019-05-10T07:22:42.474Z,15.60
2019-05-10T07:25:12.860Z,15.70
2019-05-10T07:27:44.204Z,15.80
2019-05-10T07:30:16.318Z,15.90
2019-05-10T07:32:46.615Z,16.00
2019-05-10T07:35:16.790Z,16.10
2019-05-10T07:37:47.596Z,16.10
2019-05-10T07:40:18.675Z,16.10
2019-05-10T07:43:02.360Z,16.20
2019-05-10T07:45:32.601Z,16.20
2019-05-10T07:48:07.877Z,16.30
2019-05-10T07:50:34.231Z,16.30
2019-05-10T07:53:04.355Z,16.40
2019-05-10T07:55:34.440Z,16.40
2019-05-10T07:58:05.471Z,16.40
2019-05-10T08:00:43.790Z,16.50
2019-05-10T08:03:16.119Z,16.50
2019-05-10T08:05:40.193Z,16.60
2019-05-10T08:08:10.460Z,16.70
2019-05-10T08:10:40.676Z,16.80
2019-05-10T08:13:15.339Z,16.90
2019-05-10T08:15:43.507Z,17.00
2019-05-10T08:18:15.257Z,17.10
2019-05-10T08:20:53.447Z,17.30
2019-05-10T08:23:18.005Z,17.40
2019-05-10T08:25:48.561Z,17.50
2019-05-10T08:28:18.619Z,17.50
2019-05-10T08:30:53.651Z,17.50
2019-05-10T08:33:22.741Z,17.60
2019-05-10T08:36:00.294Z,17.70
2019-05-10T08:38:24.253Z,17.70
2019-05-10T08:40:54.571Z,17.80
2019-05-10T08:43:24.865Z,17.90
2019-05-10T08:45:57.839Z,18.00
2019-05-10T08:48:27.710Z,18.00
2019-05-10T08:51:04.019Z,18.10
2019-05-10T08:53:30.115Z,18.10
2019-05-10T08:56:02.257Z,18.10
2019-05-10T08:58:36.886Z,18.10
2019-05-10T09:01:16.228Z,18.10
2019-05-10T09:03:35.703Z,18.20
2019-05-10T09:06:11.782Z,18.40
2019-05-10T09:08:37.463Z,18.50
2019-05-10T09:11:07.477Z,18.60
2019-05-10T09:13:41.443Z,18.70
2019-05-10T09:16:09.539Z,18.70
2019-05-10T09:18:53.668Z,18.70
2019-05-10T09:21:23.779Z,18.70
2019-05-10T09:24:01.749Z,18.70
2019-05-10T09:26:25.475Z,18.90
2019-05-10T09:28:57.735Z,19.10
2019-05-10T09:31:27.314Z,19.10
2019-05-10T09:33:57.436Z,19.30
2019-05-10T09:36:31.212Z,19.40
2019-05-10T09:38:59.247Z,19.30
2019-05-10T09:41:36.022Z,19.30
2019-05-10T09:44:03.040Z,19.30
2019-05-10T09:46:35.279Z,19.30
2019-05-10T09:49:14.702Z,19.40
2019-05-10T09:51:37.115Z,19.50
2019-05-10T09:54:07.803Z,19.60
2019-05-10T09:56:44.173Z,19.60
2019-05-10T09:59:10.047Z,19.70
2019-05-10T10:01:59.404Z,19.70
2019-05-10T10:04:30.468Z,19.50
2019-05-10T10:07:00.559Z,19.50
2019-05-10T10:09:37.316Z,19.60
2019-05-10T10:12:03.260Z,19.70
2019-05-10T10:14:39.335Z,19.70
2019-05-10T10:17:05.187Z,19.60
2019-05-10T10:19:37.567Z,19.60
2019-05-10T10:22:11.414Z,19.70
2019-05-10T10:24:41.055Z,19.60
2019-05-10T10:27:12.651Z,19.50
2019-05-10T10:29:42.745Z,19.70
2019-05-10T10:32:12.798Z,19.90
2019-05-10T10:34:43.305Z,20.10
2019-05-10T10:37:14.812Z,20.20
2019-05-10T10:39:47.727Z,20.20
2019-05-10T10:42:18.137Z,20.30
2019-05-10T10:44:48.426Z,20.40
2019-05-10T10:47:22.923Z,20.50
2019-05-10T10:49:50.305Z,20.60
2019-05-10T10:52:20.358Z,20.60
2019-05-10T10:54:50.545Z,20.60
2019-05-10T10:57:20.637Z,20.60
2019-05-10T10:59:50.643Z,20.80
2019-05-10T11:02:33.413Z,20.90
2019-05-10T11:04:52.543Z,20.90
2019-05-10T11:07:22.595Z,21.00
2019-05-10T11:09:53.809Z,20.90
2019-05-10T11:12:24.584Z,20.90
2019-05-10T11:14:54.712Z,20.70
2019-05-10T11:17:24.719Z,20.70
2019-05-10T11:19:54.714Z,20.60
2019-05-10T11:22:27.281Z,20.50
2019-05-10T11:25:03.043Z,20.40
2019-05-10T11:27:28.187Z,20.30
2019-05-10T11:30:00.701Z,20.30
2019-05-10T11:32:31.498Z,20.30
2019-05-10T11:35:05.435Z,20.30
2019-05-10T11:37:36.367Z,20.20
2019-05-10T11:40:07.803Z,20.30
2019-05-10T11:42:51.635Z,20.60
2019-05-10T11:45:26.217Z,20.80
2019-05-10T11:47:58.942Z,21.10
2019-05-10T11:50:32.514Z,21.40
2019-05-10T11:52:57.187Z,21.60
2019-05-10T11:55:27.307Z,21.60
2019-05-10T11:58:02.903Z,21.70
2019-05-10T12:00:33.596Z,21.70
2019-05-10T12:03:07.722Z,21.90
2019-05-10T12:05:52.141Z,21.90
2019-05-10T12:08:18.483Z,21.90
2019-05-10T12:13:24.749Z,22.10
2019-05-10T12:15:52.215Z,22.00
2019-05-10T12:18:26.952Z,22.20
2019-05-10T12:23:31.079Z,21.80
2019-05-10T12:26:06.385Z,22.00
2019-05-10T12:26:50.306Z,22.00
2019-05-10T12:27:14.062Z,22.00
2019-05-10T12:28:35.328Z,22.20
2019-05-10T12:31:01.567Z,22.30
2019-05-10T12:33:31.805Z,22.40
2019-05-10T12:36:01.707Z,22.40
2019-05-10T12:38:35.592Z,22.50
2019-05-10T12:41:05.430Z,22.60
2019-05-10T12:43:35.134Z,22.80
2019-05-10T12:46:05.349Z,22.70
2019-05-10T12:48:35.933Z,22.60
2019-05-10T12:51:11.396Z,22.20
2019-05-10T12:53:44.506Z,22.10
2019-05-10T12:56:10.134Z,22.30
2019-05-10T12:58:40.147Z,22.40
2019-05-10T13:01:10.130Z,22.30
2019-05-10T13:03:40.136Z,22.40
2019-05-10T13:06:10.247Z,22.70
2019-05-10T13:08:40.267Z,22.60
2019-05-10T13:11:10.587Z,22.70
2019-05-10T13:13:40.603Z,22.80
2019-05-10T13:16:11.954Z,22.80
2019-05-10T13:18:50.403Z,22.70
2019-05-10T13:21:20.703Z,22.80
2019-05-10T13:23:45.736Z,22.90
2019-05-10T13:26:15.808Z,22.70
2019-05-10T13:28:45.943Z,22.70
2019-05-10T13:31:16.067Z,22.60
2019-05-10T13:33:46.270Z,22.70
2019-05-10T13:36:16.306Z,22.50
2019-05-10T13:38:49.234Z,22.40
2019-05-10T13:41:23.712Z,22.30
2019-05-10T13:43:49.719Z,22.20
2019-05-10T13:46:19.687Z,22.00
2019-05-10T13:48:49.928Z,22.00
2019-05-10T13:51:19.879Z,21.80
2019-05-10T13:53:53.806Z,21.80
2019-05-10T13:56:21.734Z,21.80
2019-05-10T13:58:51.813Z,21.70
2019-05-10T14:01:21.922Z,21.80
2019-05-10T14:04:00.363Z,21.80
2019-05-10T14:06:23.829Z,21.70
2019-05-10T14:08:54.021Z,21.60
2019-05-10T14:11:24.246Z,21.60
2019-05-10T14:13:54.315Z,21.70
2019-05-10T14:16:24.431Z,21.60
2019-05-10T14:18:54.503Z,21.60
2019-05-10T14:21:24.594Z,21.60
2019-05-10T14:23:56.878Z,21.60
2019-05-10T14:26:26.428Z,21.60
2019-05-10T14:28:56.502Z,21.70
2019-05-10T14:31:26.551Z,21.60
2019-05-10T14:36:28.355Z,21.80
2019-05-10T14:38:58.391Z,21.80
2019-05-10T14:41:28.515Z,21.80
2019-05-10T14:43:58.566Z,21.70
2019-05-10T14:46:28.653Z,21.70
2019-05-10T14:49:08.882Z,21.70
2019-05-10T14:51:40.714Z,21.70
2019-05-10T14:54:06.795Z,21.60
2019-05-10T14:56:33.951Z,21.60
2019-05-10T14:59:04.083Z,21.50
2019-05-10T15:01:36.994Z,21.60
2019-05-10T15:04:06.007Z,21.60
2019-05-10T15:06:36.883Z,21.60
2019-05-10T15:09:27.177Z,21.60
2019-05-10T15:11:57.420Z,21.60
2019-05-10T15:14:27.662Z,21.60
2019-05-10T15:16:57.772Z,21.70
2019-05-10T15:19:31.804Z,21.60
2019-05-10T15:22:03.598Z,21.60
2019-05-10T15:24:34.771Z,21.50
2019-05-10T15:27:05.503Z,21.40
2019-05-10T15:29:36.002Z,21.50
2019-05-10T15:32:06.106Z,21.60
2019-05-10T15:34:36.121Z,21.60
2019-05-10T15:37:09.394Z,21.60
2019-05-10T15:39:38.122Z,21.60
2019-05-10T15:42:08.243Z,21.50
2019-05-10T15:44:38.327Z,21.50
2019-05-10T15:47:14.529Z,21.50
2019-05-10T15:49:41.078Z,21.40
2019-05-10T15:52:17.333Z,21.30
2019-05-10T15:54:44.642Z,21.20
2019-05-10T15:57:20.176Z,21.20
2019-05-10T15:59:50.833Z,21.20
2019-05-10T16:02:18.239Z,21.30
2019-05-10T16:04:48.231Z,21.20
2019-05-10T16:07:18.423Z,21.20
2019-05-10T16:09:49.839Z,21.30
2019-05-10T16:12:20.213Z,21.30
2019-05-10T16:14:50.419Z,21.30
2019-05-10T16:17:23.781Z,21.30
2019-05-10T16:19:59.767Z,21.30
2019-05-10T16:22:25.311Z,21.30
2019-05-10T16:25:00.869Z,21.30
2019-05-10T16:27:27.315Z,21.30
2019-05-10T16:29:57.422Z,21.30
2019-05-10T16:32:29.385Z,21.30
2019-05-10T16:34:59.408Z,21.30
2019-05-10T16:37:29.363Z,21.30
2019-05-10T16:39:59.420Z,21.30
2019-05-10T16:42:34.602Z,21.30
2019-05-10T16:45:01.255Z,21.20
2019-05-10T16:47:31.857Z,21.20
2019-05-10T16:50:02.032Z,21.30
2019-05-10T16:52:32.071Z,21.30
2019-05-10T16:55:09.583Z,21.30
2019-05-10T16:57:39.744Z,21.30
2019-05-10T17:00:11.311Z,21.30
2019-05-10T17:02:43.852Z,21.30
2019-05-10T17:05:15.220Z,21.30
2019-05-10T17:07:45.079Z,21.30
2019-05-10T17:10:15.213Z,21.30
2019-05-10T17:12:45.334Z,21.30
2019-05-10T17:15:15.746Z,21.20
2019-05-10T17:17:46.083Z,21.20
2019-05-10T17:20:16.438Z,21.20
2019-05-10T17:22:46.376Z,21.20
2019-05-10T17:25:16.498Z,21.10
2019-05-10T17:27:50.564Z,21.10
2019-05-10T17:30:22.433Z,21.00
2019-05-10T17:32:50.384Z,21.10
2019-05-10T17:35:20.580Z,21.10
2019-05-10T17:37:52.960Z,21.00
2019-05-10T17:40:22.420Z,21.00
2019-05-10T17:42:52.519Z,21.00
2019-05-10T17:45:23.837Z,21.00
2019-05-10T17:47:53.834Z,20.90
2019-05-10T17:50:23.881Z,20.90
2019-05-10T17:52:53.959Z,20.90
2019-05-10T17:55:25.565Z,20.80
2019-05-10T17:57:56.596Z,20.80
2019-05-10T18:00:26.898Z,20.80
2019-05-10T18:02:57.011Z,20.80
2019-05-10T18:05:27.114Z,20.70
2019-05-10T18:07:57.306Z,20.70
2019-05-10T18:10:27.377Z,20.70
2019-05-10T18:13:03.149Z,20.60
2019-05-10T18:15:32.830Z,20.60
2019-05-10T18:18:02.670Z,20.60
2019-05-10T18:20:40.972Z,20.50
2019-05-10T18:23:04.256Z,20.50
2019-05-10T18:25:34.566Z,20.50
2019-05-10T18:28:04.667Z,20.50
2019-05-10T18:30:34.720Z,20.50
2019-05-10T18:33:06.696Z,20.40
2019-05-10T18:35:36.540Z,20.40
2019-05-10T18:38:06.706Z,20.30
2019-05-10T18:40:36.823Z,20.30
2019-05-10T18:43:07.054Z,20.30
2019-05-10T18:45:37.095Z,20.30
2019-05-10T18:48:07.187Z,20.20
2019-05-10T18:50:39.570Z,20.20
2019-05-10T18:53:09.819Z,20.10
2019-05-10T18:55:39.910Z,20.10
2019-05-10T18:58:09.891Z,20.10
2019-05-10T19:00:40.371Z,20.10
2019-05-10T19:03:10.743Z,20.10
2019-05-10T19:05:40.847Z,20.10
2019-05-10T19:08:10.952Z,20.00
2019-05-10T19:10:41.101Z,20.00
2019-05-10T19:13:11.431Z,20.00
2019-05-10T19:15:46.365Z,20.00
2019-05-10T19:18:17.689Z,19.90
2019-05-10T19:20:48.848Z,19.80
2019-05-10T19:23:19.555Z,19.70
2019-05-10T19:25:51.712Z,19.70
2019-05-10T19:28:26.790Z,19.70
2019-05-10T19:30:58.644Z,19.60
2019-05-10T19:33:29.529Z,19.60
2019-05-10T19:35:56.841Z,19.60
2019-05-10T19:38:26.883Z,19.50
2019-05-10T19:40:57.022Z,19.40
2019-05-10T19:43:27.059Z,19.40
2019-05-10T19:45:58.081Z,19.30
2019-05-10T19:48:29.425Z,19.20
2019-05-10T19:51:02.846Z,19.20
2019-05-10T19:53:36.607Z,19.10
2019-05-10T19:56:05.155Z,18.90
2019-05-10T19:58:35.156Z,18.90
2019-05-10T20:01:05.303Z,18.80
2019-05-10T20:03:36.565Z,18.70
2019-05-10T20:06:09.320Z,18.60
2019-05-10T20:08:39.592Z,18.50
2019-05-10T20:11:09.566Z,18.40
2019-05-10T20:13:39.703Z,18.40
